Portada
METAR-TAF:

METAR-TAF

Aeroports :

Dawadmi, Aràbia Saudita

latitud: 24-26-59N, longitud: 044-07-16E, altitud: 922 m

Observació

L'informe es va fer fa 8 hores i 5 minuts, a les 21:00 UTC
Vent 6 kt del Oest
Temperatura 31°C
Humitat 7%
Pressió 1008 hPa
Visibilitat 10 km o més
sense núvols per sota de 1500 mi sense presència de cumulonimbus.

METAR: OEDM 312100Z 27006KT CAVOK 31/M09 Q1008

Hora: 08:05 (05:05 UTC)

Pronòstic

L'informe es va fer fa 6 hores i 5 minuts, a les 23:00 UTC
Pronòstic vàlid del 31 a les 06 UTC al 01 a les 20 UTC
Vent 5 kt del Oest
Visibilitat 10 km o més
sense núvols per sota de 1500 mi sense presència de cumulonimbus.
Evolucionant progressivament
l' 31 a les 06 UTC al 31 a les 08 UTC
Vent 12 kt del Nord-Oest
Evolucionant progressivament
l' 31 a les 17 UTC al 31 a les 19 UTC
Vent 5 kt del Oest

TAF: OEDM 302300Z 3106/0120 26005KT CAVOK BECMG 3106/3108 31012KT BECMG 3117/3119 26005KT

Observacions i pronòstics meteorològics de més de 4000 aeroports (METAR i TAF).

Les estacions disponibles són els punts grocs i vermells al mapa.

Posi el ratolí al punt desitjat per veure el nom de l'estació.

Feu clic per veure les observacions i els pronòstics meteorològics.

Per canviar el mapa: feu clic els botons verds amb una creu de color negre per apropar; al botó verd amb un guió per allunyar la imatge; o en les fletxes verdes per a mapes adjacents.


METAR-TAF: